Details From PAFA - FAIRBANKS INTL
To PATA - RALPH M CALHOUN MEM
Flight Number -
Tags generated
Created
Modified
Stats Distance 110 nm / 204 km
Max Altitude 6,000 ft / 1,829 m
Waypoints 3
Social Downloads 0
Likes 0
Share VATSIM

Download

Looking for another format? Having issues loading an existing format? Contact us
Advertisement - Login to hide

Notes

Basic altitude profile: - Ascent Rate: 1500ft/min - Ascent Speed: 190kts - Cruise Altitude: 6000ft - Cruise Speed: 220kts - Descent Rate: 1500ft/min - Descent Speed: 170kts Options: - Use NATs: yes - Use PACOTS: yes - Use low airways: yes - Use high airways: yes

Route

PAFA REEBA PATA

ID Type Via Altitude Latitude Longitude Leg Dist Tot Dist Heading (true) Name
O PAFA APT - 0 ft / 0 m 64.81391˚ -147.85539˚ - 0 nm - FAIRBANKS INTL
REEBA FIX - 6,000 ft / 1,829 m 65.08458˚ -151.01461˚ 81 nm 81 nm 283° / 280° -
O PATA APT - 0 ft / 0 m 65.17440˚ -152.10939˚ 28 nm 110 nm 282° / 281° RALPH M CALHOUN MEM

Altitude Profile

Advertisement - Login to hide

PAFA

Details ICAO PAFA (FAI)
Name FAIRBANKS INTL
Region USA (Alaska)
Timezone America/Anchorage (UTC-8.0)
Stats Elevation 434 ft / 132 m (AMSL)
Location 64.813909° -147.855392°
Runways 3
Magnetic Variation 17.322° E

METAR

PAFA 261853Z 13003KT 10SM FEW046 SCT090 SCT250 16/04 A2961

Decode

TAF

PAFA 261958Z 2620/2724 26009KT P6SM VCSH SCT040 BKN100 FM262200 07010G18KT P6SM VCTS BKN040CB BKN100 FM270200 05015G22KT 5SM -TSRA BKN040CB OVC070 FM270400 01010KT P6SM VCTS BKN070CB

Decode

Departure Runways

ID Width Length Bearing (true) Bearing (mag) Surface Threshold Offset Overrun Length
01 75 ft / 23 m 2,892 ft / 881 m 38.04° 20.72° Gravel 0 ft / 0 m 0 ft / 0 m
01L 150 ft / 46 m 11,767 ft / 3,587 m 38.00° 20.68° Asphalt 750 ft / 229 m 0 ft / 0 m
01R 100 ft / 30 m 6,482 ft / 1,976 m 38.01° 20.69° Asphalt 0 ft / 0 m 0 ft / 0 m
19 75 ft / 23 m 2,892 ft / 881 m 218.05° 200.73° Gravel 0 ft / 0 m 0 ft / 0 m
19L 100 ft / 30 m 6,482 ft / 1,976 m 218.04° 200.72° Asphalt 0 ft / 0 m 0 ft / 0 m
19R 150 ft / 46 m 11,767 ft / 3,587 m 218.04° 200.72° Asphalt 750 ft / 229 m 0 ft / 0 m

PATA

Details ICAO PATA
Name RALPH M CALHOUN MEM
Region USA (Alaska)
Timezone America/Anchorage (UTC-8.0)
Stats Elevation 227 ft / 69 m (AMSL)
Location 65.174403° -152.109385°
Runways 1
Magnetic Variation 15.812° E

METAR

PATA 261852Z 25004KT 10SM BKN100 13/07 A2965 RMK AO2 SLP043 T01280072

Decode

TAF

TAF PATA 261730Z 2618/2718 VRB06KT P6SM VCFG FEW005 SCT040 BKN100 FM262000 VRB06KT P6SM VCSH SCT040 BKN100 FM262200 VRB06KT P6SM VCTS BKN040CB BKN100 FM270200 05015G22KT 5SM -TSRA BKN040CB OVC070 FM270400 VRB06KT P6SM VCSH BKN040 BKN100

Decode

Destination Runways

ID Width Length Bearing (true) Bearing (mag) Surface Threshold Offset Overrun Length
07 150 ft / 46 m 4,372 ft / 1,333 m 89.30° 73.49° Gravel 0 ft / 0 m 420 ft / 128 m
25 150 ft / 46 m 4,372 ft / 1,333 m 269.32° 253.51° Gravel 0 ft / 0 m 200 ft / 61 m

Popular Alternatives